sensor_id;sensor_type;location;lat;lon;timestamp;P1;durP1;ratioP1;P2;durP2;ratioP2
75064;SDS011;63646;49.110;9.140;2023-02-22T05:02:39;4.10;;;3.25;;
75064;SDS011;63646;49.110;9.140;2023-02-22T05:05:05;3.83;;;2.80;;
75064;SDS011;63646;49.110;9.140;2023-02-22T05:07:31;3.28;;;2.97;;
75064;SDS011;63646;49.110;9.140;2023-02-22T05:09:56;3.80;;;3.25;;
75064;SDS011;63646;49.110;9.140;2023-02-22T05:12:22;3.40;;;3.08;;
75064;SDS011;63646;49.110;9.140;2023-02-22T05:14:47;3.47;;;3.17;;
75064;SDS011;63646;49.110;9.140;2023-02-22T05:17:16;3.60;;;3.28;;
75064;SDS011;63646;49.110;9.140;2023-02-22T05:19:41;3.40;;;3.00;;
75064;SDS011;63646;49.110;9.140;2023-02-22T05:22:07;3.17;;;2.80;;
75064;SDS011;63646;49.110;9.140;2023-02-22T05:24:32;3.10;;;2.80;;
75064;SDS011;63646;49.110;9.140;2023-02-22T05:26:59;5.38;;;3.28;;
75064;SDS011;63646;49.110;9.140;2023-02-22T05:29:24;3.78;;;3.00;;
75064;SDS011;63646;49.110;9.140;2023-02-22T05:31:50;3.03;;;2.72;;
75064;SDS011;63646;49.110;9.140;2023-02-22T05:34:15;4.90;;;3.20;;
75064;SDS011;63646;49.110;9.140;2023-02-22T05:36:41;3.58;;;2.80;;
75064;SDS011;63646;49.110;9.140;2023-02-22T05:39:07;3.55;;;3.25;;
75064;SDS011;63646;49.110;9.140;2023-02-22T05:41:32;3.40;;;3.10;;
75064;SDS011;63646;49.110;9.140;2023-02-22T05:43:58;4.25;;;3.10;;
75064;SDS011;63646;49.110;9.140;2023-02-22T05:46:23;4.15;;;3.20;;
75064;SDS011;63646;49.110;9.140;2023-02-22T05:48:49;3.38;;;3.08;;
75064;SDS011;63646;49.110;9.140;2023-02-22T05:51:14;3.60;;;2.88;;
75064;SDS011;63646;49.110;9.140;2023-02-22T05:53:40;4.22;;;3.33;;
75064;SDS011;63646;49.110;9.140;2023-02-22T05:56:06;3.42;;;3.10;;
75064;SDS011;63646;49.110;9.140;2023-02-22T05:58:32;3.42;;;3.05;;
75064;SDS011;63646;49.110;9.140;2023-02-22T06:00:58;4.28;;;3.28;;
75064;SDS011;63646;49.110;9.140;2023-02-22T06:03:23;8.45;;;3.20;;
75064;SDS011;63646;49.110;9.140;2023-02-22T06:05:49;3.38;;;3.03;;
75064;SDS011;63646;49.110;9.140;2023-02-22T06:08:14;3.95;;;3.00;;
75064;SDS011;63646;49.110;9.140;2023-02-22T06:10:42;3.38;;;3.05;;
75064;SDS011;63646;49.110;9.140;2023-02-22T06:13:08;3.55;;;2.70;;
75064;SDS011;63646;49.110;9.140;2023-02-22T06:15:34;5.68;;;2.97;;
75064;SDS011;63646;49.110;9.140;2023-02-22T06:18:00;5.47;;;3.90;;
75064;SDS011;63646;49.110;9.140;2023-02-22T06:20:26;3.40;;;3.10;;
75064;SDS011;63646;49.110;9.140;2023-02-22T06:22:54;5.28;;;3.38;;
75064;SDS011;63646;49.110;9.140;2023-02-22T06:25:22;6.47;;;3.28;;
75064;SDS011;63646;49.110;9.140;2023-02-22T06:27:49;3.33;;;3.03;;
75064;SDS011;63646;49.110;9.140;2023-02-22T06:30:16;5.30;;;3.72;;
75064;SDS011;63646;49.110;9.140;2023-02-22T06:32:43;6.57;;;3.50;;
75064;SDS011;63646;49.110;9.140;2023-02-22T06:35:08;4.50;;;3.10;;
75064;SDS011;63646;49.110;9.140;2023-02-22T06:37:34;3.95;;;3.00;;
75064;SDS011;63646;49.110;9.140;2023-02-22T06:40:00;6.22;;;3.00;;
75064;SDS011;63646;49.110;9.140;2023-02-22T06:42:25;4.95;;;3.55;;
75064;SDS011;63646;49.110;9.140;2023-02-22T06:44:51;7.07;;;3.75;;
75064;SDS011;63646;49.110;9.140;2023-02-22T06:47:17;4.45;;;3.03;;
75064;SDS011;63646;49.110;9.140;2023-02-22T06:49:50;7.38;;;3.72;;
75064;SDS011;63646;49.110;9.140;2023-02-22T06:52:17;5.28;;;3.20;;
75064;SDS011;63646;49.110;9.140;2023-02-22T06:54:43;5.82;;;3.95;;
75064;SDS011;63646;49.110;9.140;2023-02-22T06:57:08;7.38;;;2.92;;
75064;SDS011;63646;49.110;9.140;2023-02-22T06:59:34;7.45;;;3.60;;
75064;SDS011;63646;49.110;9.140;2023-02-22T07:01:59;5.65;;;3.30;;
75064;SDS011;63646;49.110;9.140;2023-02-22T07:04:25;7.65;;;3.53;;
75064;SDS011;63646;49.110;9.140;2023-02-22T07:06:50;105.05;;;37.95;;
75064;SDS011;63646;49.110;9.140;2023-02-22T07:09:16;51.35;;;25.23;;
75064;SDS011;63646;49.110;9.140;2023-02-22T07:11:42;26.70;;;11.50;;
75064;SDS011;63646;49.110;9.140;2023-02-22T07:14:07;23.08;;;11.98;;
75064;SDS011;63646;49.110;9.140;2023-02-22T07:16:36;27.80;;;11.30;;
75064;SDS011;63646;49.110;9.140;2023-02-22T07:19:01;23.58;;;11.20;;
75064;SDS011;63646;49.110;9.140;2023-02-22T07:21:27;25.52;;;11.80;;
75064;SDS011;63646;49.110;9.140;2023-02-22T07:23:54;23.60;;;9.93;;
75064;SDS011;63646;49.110;9.140;2023-02-22T07:26:21;24.25;;;10.25;;
75064;SDS011;63646;49.110;9.140;2023-02-22T07:28:47;19.52;;;10.02;;
75064;SDS011;63646;49.110;9.140;2023-02-22T07:31:14;21.45;;;10.93;;
75064;SDS011;63646;49.110;9.140;2023-02-22T07:33:40;17.92;;;9.18;;
75064;SDS011;63646;49.110;9.140;2023-02-22T07:36:06;18.30;;;8.98;;
75064;SDS011;63646;49.110;9.140;2023-02-22T07:38:32;18.20;;;8.60;;
75064;SDS011;63646;49.110;9.140;2023-02-22T07:40:58;18.95;;;8.75;;
75064;SDS011;63646;49.110;9.140;2023-02-22T07:43:26;15.77;;;7.47;;
75064;SDS011;63646;49.110;9.140;2023-02-22T07:45:54;19.90;;;8.73;;
75064;SDS011;63646;49.110;9.140;2023-02-22T07:48:20;14.85;;;7.60;;
75064;SDS011;63646;49.110;9.140;2023-02-22T07:50:48;17.73;;;7.10;;
75064;SDS011;63646;49.110;9.140;2023-02-22T07:53:18;17.52;;;8.02;;
75064;SDS011;63646;49.110;9.140;2023-02-22T07:55:47;14.70;;;6.72;;
75064;SDS011;63646;49.110;9.140;2023-02-22T07:58:21;16.95;;;7.70;;
75064;SDS011;63646;49.110;9.140;2023-02-22T08:00:51;18.98;;;8.15;;
75064;SDS011;63646;49.110;9.140;2023-02-22T08:03:18;21.48;;;7.82;;
75064;SDS011;63646;49.110;9.140;2023-02-22T08:05:50;12.32;;;6.68;;
75064;SDS011;63646;49.110;9.140;2023-02-22T08:08:17;16.30;;;7.72;;
75064;SDS011;63646;49.110;9.140;2023-02-22T08:10:43;14.70;;;7.20;;
75064;SDS011;63646;49.110;9.140;2023-02-22T08:13:09;21.52;;;7.10;;
75064;SDS011;63646;49.110;9.140;2023-02-22T08:15:36;28.70;;;7.63;;
75064;SDS011;63646;49.110;9.140;2023-02-22T08:18:04;14.82;;;7.57;;
75064;SDS011;63646;49.110;9.140;2023-02-22T08:20:54;20.25;;;7.10;;
75064;SDS011;63646;49.110;9.140;2023-02-22T08:23:19;12.88;;;7.18;;
75064;SDS011;63646;49.110;9.140;2023-02-22T08:25:46;12.48;;;6.13;;
75064;SDS011;63646;49.110;9.140;2023-02-22T08:28:14;16.13;;;5.97;;
75064;SDS011;63646;49.110;9.140;2023-02-22T08:30:41;14.85;;;6.32;;
75064;SDS011;63646;49.110;9.140;2023-02-22T08:33:09;13.77;;;6.78;;
75064;SDS011;63646;49.110;9.140;2023-02-22T08:35:38;11.43;;;6.70;;
75064;SDS011;63646;49.110;9.140;2023-02-22T08:40:32;11.68;;;6.22;;
75064;SDS011;63646;49.110;9.140;2023-02-22T08:42:59;11.05;;;5.57;;
75064;SDS011;63646;49.110;9.140;2023-02-22T08:45:26;15.80;;;6.50;;
75064;SDS011;63646;49.110;9.140;2023-02-22T08:47:51;16.45;;;7.05;;
75064;SDS011;63646;49.110;9.140;2023-02-22T08:50:19;13.32;;;6.70;;
75064;SDS011;63646;49.110;9.140;2023-02-22T08:52:48;16.88;;;7.00;;
75064;SDS011;63646;49.110;9.140;2023-02-22T08:55:20;11.85;;;6.60;;
75064;SDS011;63646;49.110;9.140;2023-02-22T08:57:47;14.82;;;6.28;;
75064;SDS011;63646;49.110;9.140;2023-02-22T09:00:15;16.75;;;6.25;;
75064;SDS011;63646;49.110;9.140;2023-02-22T09:02:42;14.45;;;6.07;;
75064;SDS011;63646;49.110;9.140;2023-02-22T09:05:08;14.40;;;6.20;;
75064;SDS011;63646;49.110;9.140;2023-02-22T09:07:34;14.65;;;6.07;;
75064;SDS011;63646;49.110;9.140;2023-02-22T09:09:59;13.23;;;6.13;;
75064;SDS011;63646;49.110;9.140;2023-02-22T09:12:25;14.88;;;6.35;;
75064;SDS011;63646;49.110;9.140;2023-02-22T09:14:50;14.40;;;5.90;;
75064;SDS011;63646;49.110;9.140;2023-02-22T09:17:16;17.92;;;5.63;;
75064;SDS011;63646;49.110;9.140;2023-02-22T09:19:41;14.27;;;5.53;;
75064;SDS011;63646;49.110;9.140;2023-02-22T09:22:07;14.68;;;5.72;;
75064;SDS011;63646;49.110;9.140;2023-02-22T09:24:32;10.35;;;5.80;;
75064;SDS011;63646;49.110;9.140;2023-02-22T09:26:58;12.90;;;5.97;;
75064;SDS011;63646;49.110;9.140;2023-02-22T09:29:25;12.93;;;5.28;;
75064;SDS011;63646;49.110;9.140;2023-02-22T09:31:52;16.27;;;5.38;;
75064;SDS011;63646;49.110;9.140;2023-02-22T09:34:19;14.82;;;7.97;;
75064;SDS011;63646;49.110;9.140;2023-02-22T09:36:46;22.30;;;14.80;;
75064;SDS011;63646;49.110;9.140;2023-02-22T09:39:14;15.15;;;11.45;;
75064;SDS011;63646;49.110;9.140;2023-02-22T09:41:53;16.90;;;12.38;;
75064;SDS011;63646;49.110;9.140;2023-02-22T09:46:52;13.70;;;8.93;;
75064;SDS011;63646;49.110;9.140;2023-02-22T09:51:54;12.68;;;7.85;;
75064;SDS011;63646;49.110;9.140;2023-02-22T09:57:12;11.13;;;7.25;;
75064;SDS011;63646;49.110;9.140;2023-02-22T09:59:53;14.27;;;6.78;;
75064;SDS011;63646;49.110;9.140;2023-02-22T10:02:31;16.55;;;7.03;;
75064;SDS011;63646;49.110;9.140;2023-02-22T10:05:04;9.07;;;6.40;;
75064;SDS011;63646;49.110;9.140;2023-02-22T10:07:39;9.30;;;5.57;;
75064;SDS011;63646;49.110;9.140;2023-02-22T10:10:13;8.27;;;6.25;;
75064;SDS011;63646;49.110;9.140;2023-02-22T10:20:21;10.97;;;6.07;;
75064;SDS011;63646;49.110;9.140;2023-02-22T10:25:30;7.90;;;4.60;;
75064;SDS011;63646;49.110;9.140;2023-02-22T10:28:23;9.93;;;5.38;;
75064;SDS011;63646;49.110;9.140;2023-02-22T10:31:03;9.75;;;5.43;;
75064;SDS011;63646;49.110;9.140;2023-02-22T10:33:39;11.52;;;5.53;;
75064;SDS011;63646;49.110;9.140;2023-02-22T10:36:15;7.38;;;5.22;;
75064;SDS011;63646;49.110;9.140;2023-02-22T10:38:47;7.07;;;4.65;;
75064;SDS011;63646;49.110;9.140;2023-02-22T10:41:30;7.63;;;5.40;;
75064;SDS011;63646;49.110;9.140;2023-02-22T10:43:58;7.15;;;5.28;;
75064;SDS011;63646;49.110;9.140;2023-02-22T10:46:26;7.82;;;5.00;;
75064;SDS011;63646;49.110;9.140;2023-02-22T10:48:53;7.05;;;4.88;;
75064;SDS011;63646;49.110;9.140;2023-02-22T10:51:26;10.02;;;5.22;;
75064;SDS011;63646;49.110;9.140;2023-02-22T10:53:55;8.18;;;4.47;;
75064;SDS011;63646;49.110;9.140;2023-02-22T10:56:25;8.60;;;4.82;;
75064;SDS011;63646;49.110;9.140;2023-02-22T10:58:58;7.38;;;4.93;;
75064;SDS011;63646;49.110;9.140;2023-02-22T11:04:01;9.35;;;4.45;;
75064;SDS011;63646;49.110;9.140;2023-02-22T11:06:37;8.25;;;5.15;;
75064;SDS011;63646;49.110;9.140;2023-02-22T11:11:34;7.45;;;4.97;;
75064;SDS011;63646;49.110;9.140;2023-02-22T11:14:00;7.60;;;4.32;;
75064;SDS011;63646;49.110;9.140;2023-02-22T11:16:41;8.38;;;5.30;;
75064;SDS011;63646;49.110;9.140;2023-02-22T11:19:24;7.50;;;4.70;;
75064;SDS011;63646;49.110;9.140;2023-02-22T11:21:55;6.75;;;4.32;;
75064;SDS011;63646;49.110;9.140;2023-02-22T11:24:33;12.10;;;5.25;;
75064;SDS011;63646;49.110;9.140;2023-02-22T11:27:09;8.02;;;5.13;;
75064;SDS011;63646;49.110;9.140;2023-02-22T11:29:48;8.15;;;4.97;;
75064;SDS011;63646;49.110;9.140;2023-02-22T11:32:20;9.23;;;4.28;;
75064;SDS011;63646;49.110;9.140;2023-02-22T11:34:46;8.52;;;5.15;;
75064;SDS011;63646;49.110;9.140;2023-02-22T11:37:27;7.03;;;3.95;;
75064;SDS011;63646;49.110;9.140;2023-02-22T11:45:10;6.95;;;4.05;;
75064;SDS011;63646;49.110;9.140;2023-02-22T11:47:57;8.27;;;4.68;;
75064;SDS011;63646;49.110;9.140;2023-02-22T11:53:22;5.82;;;4.40;;
75064;SDS011;63646;49.110;9.140;2023-02-22T12:11:19;7.07;;;4.82;;
75064;SDS011;63646;49.110;9.140;2023-02-22T12:21:53;7.07;;;4.70;;
75064;SDS011;63646;49.110;9.140;2023-02-22T12:24:25;6.85;;;4.85;;
75064;SDS011;63646;49.110;9.140;2023-02-22T12:26:56;6.57;;;3.80;;
75064;SDS011;63646;49.110;9.140;2023-02-22T12:32:11;13.88;;;4.25;;
75064;SDS011;63646;49.110;9.140;2023-02-22T12:34:52;4.78;;;3.83;;
75064;SDS011;63646;49.110;9.140;2023-02-22T12:37:27;8.35;;;4.28;;
75064;SDS011;63646;49.110;9.140;2023-02-22T12:40:05;10.73;;;3.78;;
75064;SDS011;63646;49.110;9.140;2023-02-22T12:48:08;8.90;;;4.88;;
75064;SDS011;63646;49.110;9.140;2023-02-22T12:54:21;5.38;;;4.10;;
75064;SDS011;63646;49.110;9.140;2023-02-22T12:57:13;11.88;;;4.93;;
75064;SDS011;63646;49.110;9.140;2023-02-22T12:59:45;8.73;;;4.20;;
75064;SDS011;63646;49.110;9.140;2023-02-22T13:04:42;7.45;;;4.60;;
75064;SDS011;63646;49.110;9.140;2023-02-22T13:09:48;9.05;;;4.18;;
75064;SDS011;63646;49.110;9.140;2023-02-22T13:20:29;10.95;;;6.55;;
75064;SDS011;63646;49.110;9.140;2023-02-22T13:26:51;9.85;;;5.93;;
75064;SDS011;63646;49.110;9.140;2023-02-22T13:29:18;8.90;;;5.85;;
75064;SDS011;63646;49.110;9.140;2023-02-22T13:39:56;8.90;;;5.82;;
75064;SDS011;63646;49.110;9.140;2023-02-22T13:53:47;7.05;;;3.90;;
75064;SDS011;63646;49.110;9.140;2023-02-22T13:56:23;11.23;;;4.53;;
75064;SDS011;63646;49.110;9.140;2023-02-22T13:58:54;9.63;;;4.38;;
75064;SDS011;63646;49.110;9.140;2023-02-22T14:01:38;18.75;;;6.78;;
75064;SDS011;63646;49.110;9.140;2023-02-22T14:06:52;10.55;;;4.05;;
75064;SDS011;63646;49.110;9.140;2023-02-22T14:09:58;11.45;;;4.88;;
75064;SDS011;63646;49.110;9.140;2023-02-22T14:20:44;49.30;;;21.17;;
75064;SDS011;63646;49.110;9.140;2023-02-22T14:23:32;19.75;;;6.97;;
75064;SDS011;63646;49.110;9.140;2023-02-22T14:31:15;20.67;;;7.05;;
75064;SDS011;63646;49.110;9.140;2023-02-22T14:33:50;15.23;;;6.00;;
75064;SDS011;63646;49.110;9.140;2023-02-22T14:36:30;20.08;;;6.72;;
75064;SDS011;63646;49.110;9.140;2023-02-22T14:39:02;25.98;;;6.40;;
75064;SDS011;63646;49.110;9.140;2023-02-22T14:41:34;24.08;;;5.72;;
75064;SDS011;63646;49.110;9.140;2023-02-22T14:44:02;21.83;;;6.00;;
75064;SDS011;63646;49.110;9.140;2023-02-22T14:46:30;23.75;;;6.57;;
75064;SDS011;63646;49.110;9.140;2023-02-22T14:48:59;24.20;;;6.10;;
75064;SDS011;63646;49.110;9.140;2023-02-22T14:51:30;21.60;;;5.25;;
75064;SDS011;63646;49.110;9.140;2023-02-22T14:54:10;26.58;;;6.13;;
75064;SDS011;63646;49.110;9.140;2023-02-22T14:57:17;25.58;;;6.20;;
75064;SDS011;63646;49.110;9.140;2023-02-22T15:02:47;15.52;;;5.72;;
75064;SDS011;63646;49.110;9.140;2023-02-22T15:05:16;18.08;;;5.57;;
75064;SDS011;63646;49.110;9.140;2023-02-22T15:07:53;15.02;;;4.95;;
75064;SDS011;63646;49.110;9.140;2023-02-22T15:10:22;16.30;;;5.22;;
75064;SDS011;63646;49.110;9.140;2023-02-22T15:12:53;19.02;;;5.55;;
75064;SDS011;63646;49.110;9.140;2023-02-22T15:15:36;15.55;;;5.25;;
75064;SDS011;63646;49.110;9.140;2023-02-22T15:18:03;13.07;;;5.30;;
75064;SDS011;63646;49.110;9.140;2023-02-22T15:23:07;12.80;;;4.27;;
75064;SDS011;63646;49.110;9.140;2023-02-22T15:25:34;14.82;;;5.18;;
75064;SDS011;63646;49.110;9.140;2023-02-22T15:28:02;14.00;;;4.90;;
75064;SDS011;63646;49.110;9.140;2023-02-22T15:30:30;18.30;;;4.97;;
75064;SDS011;63646;49.110;9.140;2023-02-22T15:33:08;17.40;;;5.32;;
75064;SDS011;63646;49.110;9.140;2023-02-22T15:35:36;14.25;;;4.68;;
75064;SDS011;63646;49.110;9.140;2023-02-22T15:38:10;16.60;;;5.05;;
75064;SDS011;63646;49.110;9.140;2023-02-22T15:40:42;14.63;;;4.10;;
75064;SDS011;63646;49.110;9.140;2023-02-22T15:43:17;10.60;;;4.90;;
75064;SDS011;63646;49.110;9.140;2023-02-22T15:45:48;14.70;;;4.60;;
75064;SDS011;63646;49.110;9.140;2023-02-22T15:48:15;12.45;;;4.70;;
75064;SDS011;63646;49.110;9.140;2023-02-22T15:50:57;11.80;;;4.88;;
75064;SDS011;63646;49.110;9.140;2023-02-22T15:53:24;12.65;;;4.88;;
75064;SDS011;63646;49.110;9.140;2023-02-22T15:55:57;11.30;;;4.80;;
75064;SDS011;63646;49.110;9.140;2023-02-22T15:58:25;8.82;;;5.18;;
75064;SDS011;63646;49.110;9.140;2023-02-22T16:03:44;10.80;;;4.72;;
75064;SDS011;63646;49.110;9.140;2023-02-22T16:06:23;10.95;;;4.53;;
75064;SDS011;63646;49.110;9.140;2023-02-22T16:08:54;11.23;;;4.10;;
75064;SDS011;63646;49.110;9.140;2023-02-22T16:11:28;11.35;;;5.15;;
75064;SDS011;63646;49.110;9.140;2023-02-22T16:14:02;11.77;;;4.82;;
75064;SDS011;63646;49.110;9.140;2023-02-22T16:16:31;21.02;;;5.10;;
75064;SDS011;63646;49.110;9.140;2023-02-22T16:21:51;38.88;;;5.60;;
75064;SDS011;63646;49.110;9.140;2023-02-22T16:24:25;27.65;;;5.50;;
75064;SDS011;63646;49.110;9.140;2023-02-22T16:29:29;21.30;;;5.82;;
75064;SDS011;63646;49.110;9.140;2023-02-22T16:31:55;40.30;;;6.00;;
75064;SDS011;63646;49.110;9.140;2023-02-22T16:34:21;23.75;;;5.93;;
75064;SDS011;63646;49.110;9.140;2023-02-22T16:36:47;23.02;;;5.28;;
75064;SDS011;63646;49.110;9.140;2023-02-22T16:39:28;27.45;;;5.68;;
75064;SDS011;63646;49.110;9.140;2023-02-22T16:41:56;19.38;;;5.05;;
75064;SDS011;63646;49.110;9.140;2023-02-22T16:44:24;24.75;;;5.60;;
75064;SDS011;63646;49.110;9.140;2023-02-22T16:46:51;26.67;;;5.38;;
75064;SDS011;63646;49.110;9.140;2023-02-22T16:49:17;25.90;;;5.32;;
75064;SDS011;63646;49.110;9.140;2023-02-22T16:51:46;29.70;;;5.20;;
75064;SDS011;63646;49.110;9.140;2023-02-22T16:54:23;24.13;;;5.75;;
75064;SDS011;63646;49.110;9.140;2023-02-22T16:56:53;36.25;;;5.70;;
75064;SDS011;63646;49.110;9.140;2023-02-22T16:59:20;29.98;;;5.65;;
75064;SDS011;63646;49.110;9.140;2023-02-22T17:01:46;25.05;;;5.18;;
75064;SDS011;63646;49.110;9.140;2023-02-22T17:04:16;26.00;;;5.90;;
75064;SDS011;63646;49.110;9.140;2023-02-22T17:06:48;25.60;;;5.10;;
75064;SDS011;63646;49.110;9.140;2023-02-22T17:09:13;23.65;;;5.32;;
75064;SDS011;63646;49.110;9.140;2023-02-22T17:11:39;24.42;;;5.68;;
75064;SDS011;63646;49.110;9.140;2023-02-22T17:14:06;27.50;;;5.60;;
75064;SDS011;63646;49.110;9.140;2023-02-22T17:16:32;28.80;;;5.53;;
75064;SDS011;63646;49.110;9.140;2023-02-22T17:18:57;22.98;;;5.10;;
75064;SDS011;63646;49.110;9.140;2023-02-22T17:21:23;31.98;;;5.32;;
75064;SDS011;63646;49.110;9.140;2023-02-22T17:23:48;35.67;;;5.88;;
75064;SDS011;63646;49.110;9.140;2023-02-22T17:26:14;30.35;;;6.70;;
75064;SDS011;63646;49.110;9.140;2023-02-22T17:28:40;28.92;;;5.20;;
75064;SDS011;63646;49.110;9.140;2023-02-22T17:31:09;35.42;;;5.50;;
75064;SDS011;63646;49.110;9.140;2023-02-22T17:33:42;32.58;;;5.53;;
75064;SDS011;63646;49.110;9.140;2023-02-22T17:36:08;27.05;;;5.93;;
75064;SDS011;63646;49.110;9.140;2023-02-22T17:38:34;24.33;;;5.00;;
75064;SDS011;63646;49.110;9.140;2023-02-22T17:41:00;23.52;;;5.13;;
75064;SDS011;63646;49.110;9.140;2023-02-22T17:43:26;24.58;;;5.68;;
75064;SDS011;63646;49.110;9.140;2023-02-22T17:45:51;19.80;;;5.43;;
75064;SDS011;63646;49.110;9.140;2023-02-22T17:48:17;25.80;;;4.97;;
75064;SDS011;63646;49.110;9.140;2023-02-22T17:50:44;17.20;;;4.88;;
75064;SDS011;63646;49.110;9.140;2023-02-22T17:53:20;16.35;;;5.20;;
75064;SDS011;63646;49.110;9.140;2023-02-22T17:55:48;12.98;;;4.50;;
75064;SDS011;63646;49.110;9.140;2023-02-22T17:58:14;16.98;;;4.25;;
75064;SDS011;63646;49.110;9.140;2023-02-22T18:00:41;20.38;;;5.15;;
75064;SDS011;63646;49.110;9.140;2023-02-22T18:03:12;21.98;;;4.40;;
75064;SDS011;63646;49.110;9.140;2023-02-22T18:05:44;19.67;;;4.80;;
75064;SDS011;63646;49.110;9.140;2023-02-22T18:10:39;19.75;;;6.63;;
75064;SDS011;63646;49.110;9.140;2023-02-22T18:13:08;20.48;;;8.50;;
75064;SDS011;63646;49.110;9.140;2023-02-22T18:15:34;16.63;;;9.40;;
75064;SDS011;63646;49.110;9.140;2023-02-22T18:18:00;17.35;;;8.90;;
75064;SDS011;63646;49.110;9.140;2023-02-22T18:20:27;13.05;;;7.80;;
75064;SDS011;63646;49.110;9.140;2023-02-22T18:23:03;14.48;;;6.05;;
75064;SDS011;63646;49.110;9.140;2023-02-22T18:25:32;12.25;;;7.03;;
75064;SDS011;63646;49.110;9.140;2023-02-22T18:28:02;12.55;;;7.07;;
75064;SDS011;63646;49.110;9.140;2023-02-22T18:30:30;13.32;;;6.25;;
75064;SDS011;63646;49.110;9.140;2023-02-22T18:32:56;15.15;;;6.13;;
75064;SDS011;63646;49.110;9.140;2023-02-22T18:35:21;13.40;;;6.30;;
75064;SDS011;63646;49.110;9.140;2023-02-22T18:37:47;13.18;;;5.85;;
75064;SDS011;63646;49.110;9.140;2023-02-22T18:40:15;11.82;;;4.97;;
75064;SDS011;63646;49.110;9.140;2023-02-22T18:42:43;16.70;;;5.25;;
75064;SDS011;63646;49.110;9.140;2023-02-22T18:45:09;8.20;;;4.80;;
75064;SDS011;63646;49.110;9.140;2023-02-22T18:47:38;12.98;;;4.35;;
75064;SDS011;63646;49.110;9.140;2023-02-22T18:50:07;10.77;;;4.93;;
75064;SDS011;63646;49.110;9.140;2023-02-22T18:52:34;16.23;;;4.18;;
75064;SDS011;63646;49.110;9.140;2023-02-22T18:55:17;12.95;;;5.28;;
75064;SDS011;63646;49.110;9.140;2023-02-22T18:57:44;11.93;;;4.80;;
75064;SDS011;63646;49.110;9.140;2023-02-22T19:00:11;16.38;;;5.72;;
75064;SDS011;63646;49.110;9.140;2023-02-22T19:02:52;15.98;;;5.00;;
75064;SDS011;63646;49.110;9.140;2023-02-22T19:05:19;19.20;;;5.20;;
75064;SDS011;63646;49.110;9.140;2023-02-22T19:07:45;27.17;;;5.72;;
75064;SDS011;63646;49.110;9.140;2023-02-22T19:10:10;25.63;;;6.65;;
75064;SDS011;63646;49.110;9.140;2023-02-22T19:12:37;31.20;;;10.85;;
75064;SDS011;63646;49.110;9.140;2023-02-22T19:15:03;24.35;;;13.32;;
75064;SDS011;63646;49.110;9.140;2023-02-22T19:17:29;30.58;;;10.80;;
75064;SDS011;63646;49.110;9.140;2023-02-22T19:19:56;19.50;;;7.13;;
75064;SDS011;63646;49.110;9.140;2023-02-22T19:22:21;17.58;;;8.00;;
75064;SDS011;63646;49.110;9.140;2023-02-22T19:24:50;18.45;;;7.35;;
75064;SDS011;63646;49.110;9.140;2023-02-22T19:27:18;20.02;;;6.93;;
75064;SDS011;63646;49.110;9.140;2023-02-22T19:29:44;21.65;;;6.95;;
75064;SDS011;63646;49.110;9.140;2023-02-22T19:32:09;25.33;;;7.95;;
75064;SDS011;63646;49.110;9.140;2023-02-22T19:34:35;24.20;;;6.90;;
75064;SDS011;63646;49.110;9.140;2023-02-22T19:37:02;23.42;;;6.90;;
75064;SDS011;63646;49.110;9.140;2023-02-22T19:39:29;21.60;;;6.65;;
75064;SDS011;63646;49.110;9.140;2023-02-22T19:41:56;22.95;;;6.30;;
75064;SDS011;63646;49.110;9.140;2023-02-22T19:44:22;14.93;;;6.35;;
75064;SDS011;63646;49.110;9.140;2023-02-22T19:46:50;14.43;;;6.13;;
75064;SDS011;63646;49.110;9.140;2023-02-22T19:49:16;13.68;;;6.15;;
75064;SDS011;63646;49.110;9.140;2023-02-22T19:51:42;18.98;;;6.05;;
75064;SDS011;63646;49.110;9.140;2023-02-22T19:54:10;17.08;;;5.88;;
75064;SDS011;63646;49.110;9.140;2023-02-22T19:56:37;16.40;;;5.90;;
75064;SDS011;63646;49.110;9.140;2023-02-22T19:59:04;13.20;;;5.68;;
75064;SDS011;63646;49.110;9.140;2023-02-22T20:01:34;15.38;;;5.53;;
75064;SDS011;63646;49.110;9.140;2023-02-22T20:04:02;13.02;;;6.00;;
75064;SDS011;63646;49.110;9.140;2023-02-22T20:06:37;16.73;;;5.43;;
75064;SDS011;63646;49.110;9.140;2023-02-22T20:09:10;15.43;;;6.30;;
75064;SDS011;63646;49.110;9.140;2023-02-22T20:11:39;18.58;;;5.13;;
75064;SDS011;63646;49.110;9.140;2023-02-22T20:14:04;12.23;;;5.32;;
75064;SDS011;63646;49.110;9.140;2023-02-22T20:16:33;16.35;;;6.00;;
75064;SDS011;63646;49.110;9.140;2023-02-22T20:18:59;16.58;;;5.70;;
75064;SDS011;63646;49.110;9.140;2023-02-22T20:21:29;13.27;;;5.55;;
75064;SDS011;63646;49.110;9.140;2023-02-22T20:24:02;14.93;;;5.07;;
75064;SDS011;63646;49.110;9.140;2023-02-22T20:26:31;13.20;;;5.18;;
75064;SDS011;63646;49.110;9.140;2023-02-22T20:28:59;16.88;;;5.65;;
75064;SDS011;63646;49.110;9.140;2023-02-22T20:31:25;11.35;;;5.03;;
75064;SDS011;63646;49.110;9.140;2023-02-22T20:33:54;20.23;;;5.00;;
75064;SDS011;63646;49.110;9.140;2023-02-22T20:36:21;13.68;;;5.40;;
75064;SDS011;63646;49.110;9.140;2023-02-22T20:38:50;12.73;;;5.28;;
75064;SDS011;63646;49.110;9.140;2023-02-22T20:41:35;14.45;;;4.90;;
75064;SDS011;63646;49.110;9.140;2023-02-22T20:44:03;13.48;;;5.57;;
75064;SDS011;63646;49.110;9.140;2023-02-22T20:46:31;12.18;;;5.10;;
75064;SDS011;63646;49.110;9.140;2023-02-22T20:48:58;13.18;;;5.65;;
75064;SDS011;63646;49.110;9.140;2023-02-22T20:51:44;10.00;;;4.82;;
75064;SDS011;63646;49.110;9.140;2023-02-22T20:57:32;12.10;;;5.13;;
75064;SDS011;63646;49.110;9.140;2023-02-22T20:59:58;13.10;;;5.68;;
75064;SDS011;63646;49.110;9.140;2023-02-22T21:02:24;13.27;;;5.63;;
75064;SDS011;63646;49.110;9.140;2023-02-22T21:04:49;11.40;;;4.70;;
75064;SDS011;63646;49.110;9.140;2023-02-22T21:07:15;10.07;;;4.72;;
75064;SDS011;63646;49.110;9.140;2023-02-22T21:09:40;11.07;;;5.38;;
75064;SDS011;63646;49.110;9.140;2023-02-22T21:12:05;10.15;;;4.80;;
75064;SDS011;63646;49.110;9.140;2023-02-22T21:14:37;9.95;;;4.72;;
75064;SDS011;63646;49.110;9.140;2023-02-22T21:17:03;11.55;;;4.72;;
75064;SDS011;63646;49.110;9.140;2023-02-22T21:19:29;15.13;;;5.00;;
75064;SDS011;63646;49.110;9.140;2023-02-22T21:21:56;13.50;;;5.13;;
75064;SDS011;63646;49.110;9.140;2023-02-22T21:24:24;12.63;;;5.05;;
75064;SDS011;63646;49.110;9.140;2023-02-22T21:26:51;11.30;;;5.25;;
75064;SDS011;63646;49.110;9.140;2023-02-22T21:29:17;7.38;;;5.32;;
75064;SDS011;63646;49.110;9.140;2023-02-22T21:31:43;9.43;;;4.57;;
75064;SDS011;63646;49.110;9.140;2023-02-22T21:34:10;9.13;;;4.40;;
75064;SDS011;63646;49.110;9.140;2023-02-22T21:36:37;9.23;;;4.60;;
75064;SDS011;63646;49.110;9.140;2023-02-22T21:39:03;8.88;;;5.07;;
75064;SDS011;63646;49.110;9.140;2023-02-22T21:41:42;9.88;;;5.45;;
75064;SDS011;63646;49.110;9.140;2023-02-22T21:44:08;11.85;;;5.25;;
75064;SDS011;63646;49.110;9.140;2023-02-22T21:46:34;8.45;;;4.80;;
75064;SDS011;63646;49.110;9.140;2023-02-22T21:48:59;7.57;;;4.70;;
75064;SDS011;63646;49.110;9.140;2023-02-22T21:51:26;8.57;;;4.13;;
75064;SDS011;63646;49.110;9.140;2023-02-22T21:54:00;8.07;;;4.05;;
75064;SDS011;63646;49.110;9.140;2023-02-22T21:56:30;17.23;;;5.45;;
75064;SDS011;63646;49.110;9.140;2023-02-22T21:58:59;7.97;;;4.97;;
